Главная страница
METAR-TAF:

METAR-TAF

Аэропорты :

Pottstown Limerick Airport

Pottstown, Пенсильвания, США

широта: 40-14-18N, долгота: 075-33-26W, высота над уровнем моря: 89 м

Текущие метеонаблюдения

Эта сводка был подготовлена 6 минут назад, в 16:54 UTC
Ветер 6 Узел от западный
Температура 1°C
Влажность 69%
Давление 1020 hPa
Видимость: 11.3 км
Сплошная облачность на высоте 3400 фута

METAR: KPTW 161654Z AUTO 26006KT 7SM OVC034 01/M04 A3011 RMK AO2 SLP197 T00111039 TSNO

Время: 12:00 (17:00 UTC)


TAF: отсутствует

Метеонаблюдения и прогнозы для более 4000 аэропортов (сводки METAR и TAF).

Имеющиеся станции представлены на карте желтыми и красными точками.

Чтобы увидеть название станции, наведите на нее мышь.

Затем щелкните, чтобы увидеть метеонаблюдения и метеопрогнозы.

Управление картой: чтобы увеличить масштаб, щелкните зеленые кнопки с черным крестиком; чтобы уменьшить масштаб, щелкните зеленую кнопку с тире; для просмотра соседних карт щелкайте зеленые стрелки.


METAR-TAF: